Home > Products > Valid Products > TAF

000
FTUS41 KRLX 211500 AAC
TAFCRW
TAF AMD
KCRW 211504Z 2115/2212 26008KT P6SM OVC004
     FM211600 30008KT P6SM OVC015
     FM211900 29007KT P6SM OVC025
     FM220300 31006KT P6SM OVC025
     FM221000 30004KT P6SM OVC020=



000
FTUS41 KRLX 211500 AAC
TAFHTS
TAF AMD
KHTS 211502Z 2115/2212 28007KT P6SM OVC015
     FM211800 30006KT P6SM BKN025
     FM220500 32006KT P6SM OVC025
     FM221000 31005KT P6SM OVC020=



000
FTUS41 KRLX 211400 AAB
TAFBKW
TAF AMD
KBKW 211406Z 2114/2212 24007KT P6SM OVC008
     FM211500 27006KT P6SM BKN005
     FM211700 29008KT P6SM OVC010
     FM212000 30009KT P6SM OVC015
     FM220000 31008KT P6SM OVC020
     FM220600 31007KT P6SM OVC018
     FM221000 31006KT P6SM OVC015=



000
FTUS41 KRLX 211400 AAA
TAFEKN
TAF AMD
KEKN 211404Z 2114/2212 26004KT P6SM -SHRA OVC015
      TEMPO 2114/2115 4SM -RA BR
     FM211500 26005KT P6SM OVC010
      TEMPO 2115/2117 4SM -RA BR
     FM211700 28006KT P6SM -SHRA OVC015
     FM212200 30007KT 4SM -SHRA BR OVC025
     FM220000 31007KT 4SM -SHRA BR OVC015
     FM220300 31006KT 4SM -SHRA BR OVC025
     FM221000 31005KT 6SM BR OVC015
     FM221100 31005KT P6SM OVC008=



000
FTUS41 KRLX 211400 AAB
TAFCRW
TAF AMD
KCRW 211402Z 2114/2212 26008KT P6SM OVC008
     FM211500 30008KT P6SM OVC015
     FM211700 29007KT P6SM OVC025
     FM220300 31006KT P6SM OVC025
     FM221000 30004KT P6SM OVC020=



000
FTUS41 KRLX 211400 AAC
TAFPKB
TAF AMD
KPKB 211401Z 2114/2212 VRB03KT P6SM BKN008
     FM211600 27004KT P6SM OVC015
     FM211800 30008KT P6SM OVC025
     FM212000 31008KT P6SM OVC035
     FM220000 31007KT P6SM OVC025
     FM220600 31006KT P6SM OVC015
     FM221100 31005KT P6SM OVC015=



000
FTUS41 KRLX 211400 AAB
TAFHTS
TAF AMD
KHTS 211400Z 2114/2212 30007KT P6SM OVC015
     FM211500 30006KT P6SM BKN025
     FM211700 30008KT P6SM OVC035
     FM220500 32006KT P6SM OVC025
     FM221000 31005KT P6SM OVC020=



000
FTUS41 KRLX 211300 AAA
TAFCKB
TAF AMD
KCKB 211309Z 2113/2212 VRB03KT P6SM OVC010
     FM211600 26004KT P6SM OVC015
     FM211700 27005KT P6SM -SHRA OVC025
     FM220100 31005KT 6SM -SHRA BR OVC035
     FM220200 31006KT P6SM OVC025
     FM220500 31005KT P6SM OVC015
     FM221100 31004KT P6SM OVC010=



000
FTUS41 KRLX 211300 AAB
TAFPKB
TAF AMD
KPKB 211308Z 2113/2212 VRB03KT P6SM OVC010
     FM211600 27004KT P6SM OVC015
     FM211800 30008KT P6SM OVC025
     FM212000 31008KT P6SM OVC035
     FM220000 31007KT P6SM OVC025
     FM220600 31006KT P6SM OVC015
     FM221100 31005KT P6SM OVC015=



000
FTUS41 KRLX 211200 AAA
TAFBKW
TAF AMD
KBKW 211249Z 2113/2212 23004KT P6SM OVC012
     FM211700 29008KT P6SM OVC025
     FM212000 30009KT P6SM OVC035
     FM220000 31008KT P6SM OVC025
     FM220100 31007KT P6SM OVC025
     FM220600 31007KT P6SM OVC025
     FM221000 31006KT P6SM OVC020=



000
FTUS41 KRLX 211200 AAA
TAFPKB
TAF AMD
KPKB 211230Z 2113/2212 VRB03KT P6SM OVC012
     FM211300 27004KT P6SM OVC035
     FM211800 30008KT P6SM OVC025
     FM212000 31008KT P6SM OVC035
     FM220000 31007KT P6SM OVC025
     FM220600 31006KT P6SM OVC015
     FM221100 31005KT P6SM OVC015=



000
FTUS41 KRLX 211200 AAA
TAFHTS
TAF AMD
KHTS 211205Z 2112/2212 23005KT P6SM OVC012
     FM211400 29006KT P6SM BKN025
     FM211700 30008KT P6SM OVC035
     FM220500 32006KT P6SM OVC025
     FM221000 31005KT P6SM OVC020=



000
FTUS41 KRLX 211200 AAA
TAFCRW
TAF AMD
KCRW 211205Z 2112/2212 25004KT P6SM OVC015
     FM211400 27005KT P6SM OVC025
     FM211700 29007KT P6SM OVC035
     FM220300 31006KT P6SM OVC025
     FM221000 30004KT P6SM OVC020=



000
FTUS41 KRLX 211200 AAA
TAFCRW
TAF AMD
KCRW 211205Z 2112/2212 25004KT P6SM OVC015
     FM211400 27005KT P6SM OVC025
     FM211700 29007KT P6SM OVC035
     FM220300 31006KT P6SM OVC025
     FM221000 30004KT P6SM OVC020=



000
FTUS41 KRLX 211200 AAA
TAFHTS
TAF AMD
KHTS 211205Z 2112/2212 23005KT P6SM OVC012
     FM211400 29006KT P6SM BKN025
     FM211700 30008KT P6SM OVC035
     FM220500 32006KT P6SM OVC025
     FM221000 31005KT P6SM OVC020=



000
FTUS41 KRLX 211100
TAFPKB
TAF
KPKB 211129Z 2112/2212 VRB03KT P6SM OVC025
     FM211300 27004KT P6SM OVC035
     FM211800 30008KT P6SM OVC025
     FM212000 31008KT P6SM OVC035
     FM220000 31007KT P6SM OVC025
     FM220600 31006KT P6SM OVC015
     FM221100 31005KT P6SM OVC015=



000
FTUS41 KRLX 211100
TAFHTS
TAF
KHTS 211129Z 2112/2212 23005KT P6SM OVC035
      TEMPO 2112/2114 BKN015
     FM211400 29006KT P6SM BKN025
     FM211700 30008KT P6SM OVC035
     FM220500 32006KT P6SM OVC025
     FM221000 31005KT P6SM OVC020=



000
FTUS41 KRLX 211100
TAFCKB
TAF
KCKB 211129Z 2112/2212 VRB03KT P6SM -SHRA OVC025
      TEMPO 2112/2113 BKN015
     FM211700 27005KT P6SM -SHRA OVC035
     FM220100 31005KT 6SM -SHRA BR OVC035
     FM220200 31006KT P6SM OVC025
     FM220500 31005KT P6SM OVC015
     FM221100 31004KT P6SM OVC010=



000
FTUS41 KRLX 211100
TAFEKN
TAF
KEKN 211129Z 2112/2212 26004KT P6SM -SHRA OVC025
     FM211500 26005KT P6SM OVC025
     FM211700 28006KT 6SM -SHRA BR OVC035
     FM212200 30007KT 4SM -SHRA BR OVC025
     FM220000 31007KT 4SM -SHRA BR OVC015
     FM220300 31006KT 4SM -SHRA BR OVC025
     FM221000 31005KT 6SM BR OVC015
     FM221100 31005KT P6SM OVC008=



000
FTUS41 KRLX 211100
TAFHTS
TAF
KHTS 211129Z 2112/2212 23005KT P6SM OVC035
      TEMPO 2112/2114 BKN015
     FM211400 29006KT P6SM BKN025
     FM211700 30008KT P6SM OVC035
     FM220500 32006KT P6SM OVC025
     FM221000 31005KT P6SM OVC020=



000
FTUS41 KRLX 211100
TAFCRW
TAF
KCRW 211129Z 2112/2212 25004KT P6SM OVC035
     FM211400 27005KT P6SM OVC025
     FM211700 29007KT P6SM OVC035
     FM220300 31006KT P6SM OVC025
     FM221000 30004KT P6SM OVC020=



000
FTUS41 KRLX 211100
TAFEKN
TAF
KEKN 211129Z 2112/2212 26004KT P6SM -SHRA OVC025
     FM211500 26005KT P6SM OVC025
     FM211700 28006KT 6SM -SHRA BR OVC035
     FM212200 30007KT 4SM -SHRA BR OVC025
     FM220000 31007KT 4SM -SHRA BR OVC015
     FM220300 31006KT 4SM -SHRA BR OVC025
     FM221000 31005KT 6SM BR OVC015
     FM221100 31005KT P6SM OVC008=



000
FTUS41 KRLX 211100
TAFCRW
TAF
KCRW 211129Z 2112/2212 25004KT P6SM OVC035
     FM211400 27005KT P6SM OVC025
     FM211700 29007KT P6SM OVC035
     FM220300 31006KT P6SM OVC025
     FM221000 30004KT P6SM OVC020=



000
FTUS41 KRLX 211100
TAFBKW
TAF
KBKW 211129Z 2112/2212 23004KT P6SM OVC020
     FM211700 29008KT P6SM OVC025
     FM212000 30009KT P6SM OVC035
     FM220000 31008KT P6SM OVC025
     FM220100 31007KT P6SM OVC025
     FM220600 31007KT P6SM OVC025
     FM221000 31006KT P6SM OVC020=



000
FTUS41 KRLX 211100
TAFCKB
TAF
KCKB 211129Z 2112/2212 VRB03KT P6SM -SHRA OVC025
      TEMPO 2112/2113 BKN015
     FM211700 27005KT P6SM -SHRA OVC035
     FM220100 31005KT 6SM -SHRA BR OVC035
     FM220200 31006KT P6SM OVC025
     FM220500 31005KT P6SM OVC015
     FM221100 31004KT P6SM OVC010=



000
FTUS41 KRLX 211100
TAFBKW
TAF
KBKW 211129Z 2112/2212 23004KT P6SM OVC020
     FM211700 29008KT P6SM OVC025
     FM212000 30009KT P6SM OVC035
     FM220000 31008KT P6SM OVC025
     FM220100 31007KT P6SM OVC025
     FM220600 31007KT P6SM OVC025
     FM221000 31006KT P6SM OVC020=



000
FTUS41 KRLX 211100
TAFPKB
TAF
KPKB 211129Z 2112/2212 VRB03KT P6SM OVC025
     FM211300 27004KT P6SM OVC035
     FM211800 30008KT P6SM OVC025
     FM212000 31008KT P6SM OVC035
     FM220000 31007KT P6SM OVC025
     FM220600 31006KT P6SM OVC015
     FM221100 31005KT P6SM OVC015=



000
FTUS41 KRLX 210800 AAA
TAFPKB
TAF AMD
KPKB 210858Z 2109/2206 25004KT P6SM BKN035 BKN120
     FM211200 27005KT P6SM BKN025
     FM211300 28005KT P6SM BKN035
     FM211800 32007KT P6SM OVC025
     FM212000 31007KT 6SM -TSRA OVC035CB
     FM220000 31007KT 6SM -SHRA OVC025=



000
FTUS41 KRLX 210800 AAA
TAFEKN
TAF AMD
KEKN 210858Z 2109/2206 00000KT P6SM -SHRA BKN030
     FM211200 00000KT 6SM -SHRA BR OVC025
     FM211700 28006KT 6SM -TSRA BR OVC035CB
     FM220000 30005KT 6SM -SHRA BR OVC015
     FM220300 32004KT 5SM -SHRA BR OVC025
     FM220400 VRB03KT 5SM -SHRA BR OVC015=



000
FTUS41 KRLX 210800 AAA
TAFCKB
TAF AMD
KCKB 210858Z 2109/2206 00000KT P6SM SCT025 BKN120
     FM211200 21005KT P6SM BKN025
     FM211500 27005KT 6SM -SHRA OVC025
     FM211700 28005KT 6SM -TSRA OVC035CB
     FM220200 30005KT P6SM OVC025
     FM220500 29004KT P6SM OVC015=



000
FTUS41 KRLX 210800 AAA
TAFBKW
TAF AMD
KBKW 210858Z 2109/2206 00000KT P6SM BKN045
      TEMPO 2109/2110 4SM -SHRA OVC015
     FM211000 VRB03KT P6SM OVC025
     FM211300 27006KT P6SM OVC015
     FM211700 28008G13KT P6SM OVC025
     FM212000 30009G15KT P6SM OVC035
     FM220000 31006KT P6SM OVC025
     FM220300 31006KT P6SM OVC015=



000
FTUS41 KRLX 210800 AAA
TAFCRW
TAF AMD
KCRW 210858Z 2109/2206 00000KT P6SM BKN070
     FM211100 24005KT P6SM BKN035
     FM211400 27004KT P6SM BKN025
     FM211700 29006KT P6SM OVC035
     FM220300 31004KT P6SM OVC025=



000
FTUS41 KRLX 210800 AAA
TAFHTS
TAF AMD
KHTS 210858Z 2109/2206 VRB03KT P6SM BKN060
     FM211400 30005KT P6SM BKN025
     FM211700 31007KT P6SM BKN035
     FM220500 30004KT P6SM OVC025=



000
FTUS41 KRLX 210500 RRA
TAFPKB
TAF
KPKB 210543Z 2106/2206 24004KT P6SM BKN050
     FM210800 25004KT P6SM BKN035
     FM211200 27005KT P6SM BKN025
     FM211300 28005KT P6SM BKN035
     FM211800 32007KT P6SM OVC025
     FM212000 31007KT 6SM -TSRA OVC035CB
     FM220000 31007KT 6SM -SHRA OVC025=



000
FTUS41 KRLX 210500 RRA
TAFCKB
TAF
KCKB 210543Z 2106/2206 00000KT 6SM -SHRA BKN035
     FM210700 00000KT P6SM BKN035
     FM210900 00000KT P6SM OVC025
     FM211500 27005KT 6SM -SHRA OVC025
     FM211700 28005KT 6SM -TSRA OVC035CB
     FM220200 30005KT P6SM OVC025
     FM220500 29004KT P6SM OVC015=



000
FTUS41 KRLX 210500 RRA
TAFCRW
TAF
KCRW 210543Z 2106/2206 00000KT 6SM -SHRA BKN070
      TEMPO 2107/2111 BKN025
     FM211400 27004KT P6SM BKN025
     FM211700 29006KT P6SM OVC035
     FM220300 31004KT P6SM OVC025=



000
FTUS41 KRLX 210500 RRA
TAFEKN
TAF
KEKN 210543Z 2106/2206 00000KT P6SM -SHRA BKN030
     FM211200 00000KT 6SM -SHRA BR OVC025
     FM211700 28006KT 6SM -TSRA BR OVC035CB
     FM220000 30005KT 6SM -SHRA BR OVC015
     FM220300 32004KT 5SM -SHRA BR OVC025
     FM220400 VRB03KT 5SM -SHRA BR OVC015=



000
FTUS41 KRLX 210500 RRA
TAFBKW
TAF
KBKW 210543Z 2106/2206 00000KT P6SM BKN045
     FM211000 VRB03KT P6SM OVC025
     FM211300 27006KT P6SM OVC015
     FM211700 28008G13KT P6SM OVC025
     FM212000 30009G15KT P6SM OVC035
     FM220000 31006KT P6SM OVC025
     FM220300 31006KT P6SM OVC015=



000
FTUS41 KRLX 210500 RRA
TAFHTS
TAF
KHTS 210543Z 2106/2206 VRB03KT P6SM BKN060
      TEMPO 2106/2107 -SHRA
     FM211400 30005KT P6SM BKN025
     FM211700 31007KT P6SM BKN035
     FM220500 30004KT P6SM OVC025=



000
FTUS41 KRLX 210200 AAA
TAFCKB
TAF AMD
KCKB 210229Z 2102/2124 19004KT P6SM -SHRA OVC060
     FM210700 00000KT P6SM BKN035
     FM210900 00000KT P6SM OVC025
     FM211500 27005KT P6SM -SHRA OVC025
     FM211700 28005KT P6SM -SHRA OVC035=



000
FTUS41 KRLX 210200 AAA
TAFHTS
TAF AMD
KHTS 210229Z 2102/2124 00000KT P6SM -SHRA VCTS BKN060CB
     FM210400 24003KT P6SM BKN035
      TEMPO 2105/2107 BKN025
     FM211400 30005KT P6SM BKN025
     FM211700 31007KT P6SM BKN035=



000
FTUS41 KRLX 210200 AAA
TAFEKN
TAF AMD
KEKN 210229Z 2102/2124 00000KT P6SM -SHRA BKN060
     FM211200 00000KT 6SM -SHRA BR OVC025
     FM211700 28006KT 6SM -SHRA BR OVC035
     FM212200 30005KT 4SM -SHRA BR OVC025=



000
FTUS41 KRLX 210200 AAA
TAFBKW
TAF AMD
KBKW 210229Z 2102/2124 23004KT P6SM BKN050
      TEMPO 2102/2106 BKN025
     FM211000 VRB03KT P6SM OVC025
     FM211200 28004KT P6SM OVC015
     FM211700 28008G13KT P6SM OVC025
     FM212000 30009G15KT P6SM OVC035=



000
FTUS41 KRLX 210200 AAA
TAFPKB
TAF AMD
KPKB 210229Z 2102/2124 VRB03KT 6SM -SHRA BR VCTS OVC060CB
      TEMPO 2103/2105 4SM -TSRA BR
     FM210500 23004KT P6SM BKN025
     FM210800 25004KT P6SM BKN035
     FM211300 28005KT P6SM BKN035
     FM211800 32007KT P6SM OVC025
     FM212000 31007KT P6SM OVC035=



000
FTUS41 KRLX 210200 AAA
TAFCRW
TAF AMD
KCRW 210229Z 2102/2124 00000KT P6SM -SHRA BKN050
     FM210500 00000KT P6SM BKN040
      TEMPO 2107/2111 BKN025
     FM211400 27004KT P6SM BKN025
     FM211700 29006KT P6SM OVC035=



000
FTUS41 KRLX 202300
TAFHTS
TAF
KHTS 202340Z 2100/2124 00000KT P6SM BKN060
      TEMPO 2105/2107 BKN025
     FM210700 VRB03KT P6SM BKN040
     FM211400 30005KT P6SM BKN025
     FM211700 31007KT P6SM BKN035=



000
FTUS41 KRLX 202300
TAFPKB
TAF
KPKB 202340Z 2100/2124 VRB03KT 6SM -SHRA BR OVC060
      TEMPO 2100/2101 4SM -SHRA BR
     FM210500 23004KT P6SM BKN025
     FM210800 25004KT P6SM BKN035
     FM211300 28005KT P6SM BKN035
     FM211800 32007KT P6SM OVC025
     FM212000 31007KT P6SM OVC035=



000
FTUS41 KRLX 202300
TAFEKN
TAF
KEKN 202340Z 2100/2124 00000KT P6SM BKN080
      TEMPO 2100/2104 4SM -SHRA BR
     FM210400 00000KT P6SM -SHRA BKN060
     FM211200 00000KT 6SM -SHRA BR OVC025
     FM211700 28006KT 6SM -SHRA BR OVC035
     FM212200 30005KT 4SM -SHRA BR OVC025=



000
FTUS41 KRLX 202300
TAFCKB
TAF
KCKB 202340Z 2100/2124 00000KT P6SM -SHRA OVC060
      TEMPO 2102/2104 4SM -SHRA BR
     FM210700 00000KT P6SM BKN035
     FM210900 00000KT P6SM OVC025
     FM211500 27005KT P6SM -SHRA OVC025
     FM211700 28005KT P6SM -SHRA OVC035=



000
FTUS41 KRLX 202300
TAFCRW
TAF
KCRW 202340Z 2100/2124 00000KT P6SM BKN090
     FM210300 00000KT P6SM -SHRA BKN050
     FM210500 00000KT P6SM BKN040
     FM210700 00000KT P6SM BKN025
     FM211100 00000KT P6SM BKN035
     FM211400 27004KT P6SM BKN025
     FM211700 29006KT P6SM OVC035=



000
FTUS41 KRLX 202300
TAFBKW
TAF
KBKW 202340Z 2100/2124 23004KT P6SM BKN090
     FM210500 00000KT P6SM BKN050
     FM211000 VRB03KT P6SM OVC025
     FM211200 28004KT P6SM OVC015
     FM211700 28008G13KT P6SM OVC025
     FM212000 30009G15KT P6SM OVC035=



000
FTUS41 KRLX 201900 AAA
TAFCKB
TAF AMD
KCKB 201913Z 2019/2118 20010G20KT P6SM BKN080
     FM202200 22007KT P6SM SCT100
     FM210000 00000KT P6SM BKN110
     FM210400 00000KT P6SM BKN045
     FM210900 VRB03KT P6SM OVC025
     FM211100 27004KT P6SM OVC020
     FM211700 27008KT P6SM OVC025=



000
FTUS41 KRLX 201700 RRA
TAFPKB
TAF
KPKB 201741Z 2018/2118 18009KT P6SM SCT110
     FM201900 20008G13KT P6SM SCT050
     FM202200 21006KT P6SM BKN080
     FM210000 VRB03KT P6SM OVC040
     FM210500 23004KT P6SM BKN025
     FM210800 27004KT P6SM BKN035
     FM211300 27006KT P6SM OVC030
     FM211500 29007KT P6SM OVC020=



000
FTUS41 KRLX 201700 RRA
TAFHTS
TAF
KHTS 201741Z 2018/2118 21008KT P6SM BKN060
     FM202300 22004KT P6SM BKN080
     FM210200 00000KT P6SM BKN045
     FM210400 VRB03KT P6SM BKN030
     FM210700 27004KT P6SM BKN040
     FM211600 30007KT P6SM BKN035
     FM211700 30007KT P6SM OVC030=



000
FTUS41 KRLX 201700 RRA
TAFCRW
TAF
KCRW 201741Z 2018/2118 22007KT P6SM BKN080
     FM202000 22006KT P6SM SCT060
     FM202300 00000KT P6SM SCT100
     FM210000 00000KT P6SM BKN090
     FM210300 00000KT P6SM BKN050
     FM210700 VRB03KT P6SM BKN025
     FM211000 27004KT P6SM BKN035
     FM211700 29006KT P6SM OVC030=



000
FTUS41 KRLX 201700 RRA
TAFCKB
TAF
KCKB 201741Z 2018/2118 21008KT P6SM BKN110
     FM202000 22007KT P6SM SCT100
     FM210000 00000KT P6SM BKN110
     FM210400 00000KT P6SM BKN045
     FM210900 VRB03KT P6SM OVC025
     FM211100 27004KT P6SM OVC020
     FM211700 27008KT P6SM OVC025=



000
FTUS41 KRLX 201700 RRA
TAFBKW
TAF
KBKW 201741Z 2018/2118 22008KT P6SM BKN150
     FM210000 23004KT P6SM BKN100
     FM210500 VRB03KT P6SM BKN060
     FM210700 VRB03KT P6SM BKN040
     FM210900 VRB03KT P6SM BKN030
     FM211400 29006KT P6SM OVC018=



000
FTUS41 KRLX 201700 RRA
TAFEKN
TAF
KEKN 201741Z 2018/2118 25006KT P6SM BKN150
     FM202300 00000KT P6SM SCT120
     FM210200 00000KT P6SM BKN100
     FM210600 00000KT P6SM BKN040
     FM211000 00000KT P6SM OVC025
     FM211400 26004KT P6SM OVC025=



000
FTUS41 KRLX 201600 AAC
TAFEKN
TAF AMD
KEKN 201607Z 2016/2112 24004KT P6SM BKN120
     FM202100 24008G15KT P6SM BKN050
     FM210000 22005KT P6SM BKN050
     FM210500 24005KT 5SM BR OVC020=



000
FTUS41 KRLX 201600 AAA
TAFCKB
TAF AMD
KCKB 201607Z 2016/2112 21006KT P6SM BKN120
     FM201800 21007G14KT P6SM BKN050
     FM210500 22005KT 6SM -SHRA BR OVC025=



000
FTUS41 KRLX 201600 AAA
TAFBKW
TAF AMD
KBKW 201607Z 2016/2112 24007KT P6SM BKN200
     FM201900 24010G19KT P6SM BKN120
     FM202300 23006KT P6SM BKN080
     FM210500 24005KT P6SM BKN030=



000
FTUS41 KRLX 201600 AAA
TAFHTS
TAF AMD
KHTS 201606Z 2016/2112 22006KT P6SM BKN130
     FM201900 21009G17KT P6SM BKN090
     FM210000 22006KT P6SM BKN100
     FM210300 23005KT P6SM BKN060=



000
FTUS41 KRLX 201600 AAC
TAFCRW
TAF AMD
KCRW 201606Z 2016/2112 22007KT P6SM BKN150
     FM201900 23008G18KT P6SM BKN060
     FM210500 23005KT 6SM -SHRA BR OVC045=



000
FTUS41 KRLX 201600 AAA
TAFPKB
TAF AMD
KPKB 201606Z 2016/2112 19006KT P6SM BKN080
     FM210200 21005KT 6SM -SHRA BR BKN050
     FM210500 23004KT 4SM -SHRA BR OVC030=



000
FTUS41 KRLX 201300 AAB
TAFCRW
TAF AMD
KCRW 201300Z 2013/2112 00000KT 4SM BR SCT200
     FM201400 00000KT P6SM SCT210
     FM201500 22007KT P6SM BKN150
     FM201900 23008G18KT P6SM BKN060
     FM210500 23005KT 6SM -SHRA BR OVC045=



000
FTUS41 KRLX 201200 AAB
TAFEKN
TAF AMD
KEKN 201256Z 2013/2112 00000KT P6SM SCT003
     FM201500 24004KT P6SM BKN070
     FM202100 24008G15KT P6SM BKN050
     FM210000 22005KT P6SM BKN050
     FM210500 24005KT 5SM BR OVC020=



000
FTUS41 KRLX 201200 AAA
TAFEKN
TAF AMD
KEKN 201206Z 2012/2112 00000KT 3SM BR BKN002
     FM201300 00000KT 5SM BR SCT003
     FM201500 24004KT P6SM BKN070
     FM202100 24008G15KT P6SM BKN050
     FM210000 22005KT P6SM BKN050
     FM210500 24005KT 5SM BR OVC020=



000
FTUS41 KRLX 201200 AAA
TAFCRW
TAF AMD
KCRW 201205Z 2012/2112 00000KT 4SM BR SCT200
      TEMPO 2012/2013 2SM BR SCT001
     FM201300 00000KT P6SM SCT210
     FM201500 22007KT P6SM BKN150
     FM201900 23008G18KT P6SM BKN060
     FM210500 23005KT 6SM -SHRA BR OVC045=



000
FTUS41 KRLX 201100
TAFCKB
TAF
KCKB 201130Z 2012/2112 00000KT P6SM BKN070 OVC200
     FM201500 21006KT P6SM BKN060
     FM201800 21007G14KT P6SM BKN050
     FM210500 22005KT 6SM -SHRA BR OVC025=



000
FTUS41 KRLX 201100
TAFBKW
TAF
KBKW 201130Z 2012/2112 00000KT P6SM FEW120
     FM201500 25006KT P6SM BKN200
     FM201900 24010G19KT P6SM BKN120
     FM202300 23006KT P6SM BKN080
     FM210500 24005KT P6SM BKN030=



000
FTUS41 KRLX 201100
TAFHTS
TAF
KHTS 201130Z 2012/2112 00000KT P6SM SCT200
     FM201600 22006KT P6SM BKN130
     FM201900 21009G17KT P6SM BKN090
     FM210000 22006KT P6SM BKN100
     FM210300 23005KT P6SM BKN060=



000
FTUS41 KRLX 201100
TAFEKN
TAF
KEKN 201130Z 2012/2112 00000KT 1/4SM FG OVC001
     FM201300 00000KT 3SM BR SCT020
     FM201500 24004KT P6SM BKN070
     FM202100 24008G15KT P6SM BKN050
     FM210000 22005KT P6SM BKN050
     FM210500 24005KT 5SM BR OVC020=



000
FTUS41 KRLX 201100
TAFCRW
TAF
KCRW 201130Z 2012/2112 00000KT P6SM SCT200
      TEMPO 2012/2013 4SM BR SCT001
     FM201500 22007KT P6SM BKN150
     FM201900 23008G18KT P6SM BKN060
     FM210500 23005KT 6SM -SHRA BR OVC045=



000
FTUS41 KRLX 201100
TAFPKB
TAF
KPKB 201130Z 2012/2112 00000KT P6SM BKN070
     FM201600 19006KT P6SM BKN080
     FM210200 21005KT 6SM -SHRA BR BKN050
     FM210500 23004KT 4SM -SHRA BR OVC030=



000
FTUS41 KRLX 200800 AAA
TAFEKN
TAF AMD
KEKN 200840Z 2009/2106 00000KT 4SM BR SCT001
      TEMPO 2009/2012 2SM BR BKN001
     FM201300 00000KT 3SM BR SCT020
     FM201500 24004KT P6SM BKN070
     FM202100 24008G15KT P6SM BKN050
     FM210000 22005KT P6SM BKN050
     FM210500 24005KT 5SM BR OVC020=



000
FTUS41 KRLX 200800 AAA
TAFBKW
TAF AMD
KBKW 200840Z 2009/2106 00000KT P6SM FEW120
     FM201500 25006KT P6SM BKN200
     FM201900 24010G19KT P6SM BKN120
     FM202300 23006KT P6SM BKN080
     FM210500 24005KT P6SM BKN030=



000
FTUS41 KRLX 200800 AAA
TAFPKB
TAF AMD
KPKB 200840Z 2009/2106 00000KT P6SM BKN200
     FM201200 00000KT P6SM BKN070
     FM201600 19006KT P6SM BKN080
     FM210200 21005KT 6SM -SHRA BR BKN050
     FM210500 23004KT 4SM -SHRA BR OVC030=



000
FTUS41 KRLX 200800 AAA
TAFHTS
TAF AMD
KHTS 200840Z 2009/2106 00000KT P6SM SCT200
     FM201600 22006KT P6SM BKN130
     FM201900 21009G17KT P6SM BKN090
     FM210000 22006KT P6SM BKN100
     FM210300 23005KT P6SM BKN060=



000
FTUS41 KRLX 200800 AAA
TAFCKB
TAF AMD
KCKB 200840Z 2009/2106 00000KT P6SM SCT220
     FM201200 00000KT P6SM BKN070 OVC200
     FM201500 21006KT P6SM BKN060
     FM201800 21007G14KT P6SM BKN050
     FM210500 22005KT 6SM -SHRA BR OVC025=



000
FTUS41 KRLX 200800 AAA
TAFCRW
TAF AMD
KCRW 200840Z 2009/2106 00000KT P6SM SCT200
     FM201500 22007KT P6SM BKN150
     FM201900 23008G18KT P6SM BKN060
     FM210500 23005KT 6SM -SHRA BR OVC045=



000
FTUS41 KRLX 200500
TAFHTS
TAF
KHTS 200524Z 2006/2106 00000KT P6SM SCT200
     FM201600 22006KT P6SM BKN130
     FM201900 21009G17KT P6SM BKN090
     FM210000 22006KT P6SM BKN100
     FM210300 23005KT P6SM BKN060=



000
FTUS41 KRLX 200500
TAFBKW
TAF
KBKW 200524Z 2006/2106 00000KT P6SM FEW120
     FM201500 25006KT P6SM BKN200
     FM201900 24010G19KT P6SM BKN120
     FM202300 23006KT P6SM BKN080
     FM210500 24005KT P6SM BKN030=



000
FTUS41 KRLX 200500
TAFCRW
TAF
KCRW 200524Z 2006/2106 00000KT P6SM SCT200
     FM201500 22007KT P6SM BKN150
     FM201900 23008G18KT P6SM BKN060
     FM210500 23005KT 6SM -SHRA BR OVC045=



000
FTUS41 KRLX 200500
TAFCKB
TAF
KCKB 200524Z 2006/2106 00000KT P6SM SCT220
     FM201200 00000KT P6SM BKN070 OVC200
     FM201500 21006KT P6SM BKN060
     FM201800 21007G14KT P6SM BKN050
     FM210500 22005KT 6SM -SHRA BR OVC025=



000
FTUS41 KRLX 200500
TAFEKN
TAF
KEKN 200524Z 2006/2106 00000KT 6SM BR SCT200
     FM200800 00000KT 4SM BR SCT001
     FM201300 00000KT 3SM BR SCT020
     FM201500 24004KT P6SM BKN070
     FM202100 24008G15KT P6SM BKN050
     FM210000 22005KT P6SM BKN050
     FM210500 24005KT 5SM BR OVC020=



000
FTUS41 KRLX 200500
TAFPKB
TAF
KPKB 200524Z 2006/2106 00000KT P6SM BKN200
     FM200800 00000KT 5SM BR BKN150
     FM201000 00000KT 2SM BR BKN120
     FM201200 00000KT P6SM BKN070
     FM201600 19006KT P6SM BKN080
     FM210200 21005KT 6SM -SHRA BR BKN050
     FM210500 23004KT 4SM -SHRA BR OVC030=



000
FTUS41 KRLX 200200 AAA
TAFCRW
TAF AMD
KCRW 200223Z 2002/2024 00000KT P6SM SCT250
     FM200900 00000KT 6SM BR FEW001 SCT025 BKN250
     FM201400 22007KT P6SM BKN250
     FM201900 22008G15KT P6SM BKN100=



000
FTUS41 KRLX 200200 AAA
TAFPKB
TAF AMD
KPKB 200223Z 2002/2024 00000KT P6SM SCT250
     FM200700 00000KT 5SM BR SCT025 BKN250
      TEMPO 2008/2010 2SM BR SCT002
     FM201100 00000KT P6SM BKN025
     FM201300 VRB03KT P6SM BKN140
     FM201700 20007KT P6SM BKN090=



000
FTUS41 KRLX 200200 AAA
TAFHTS
TAF AMD
KHTS 200223Z 2002/2024 00000KT P6SM SCT250
     FM201500 22005KT P6SM BKN100
     FM201900 21009G17KT P6SM BKN100=



000
FTUS41 KRLX 200200 AAA
TAFEKN
TAF AMD
KEKN 200223Z 2002/2024 00000KT P6SM SCT250
     FM200400 00000KT 5SM BR SCT250
     FM200500 00000KT 2SM BR SCT001
     FM200600 00000KT 1/4SM FG VV001
     FM201300 00000KT 3SM BR SCT001 BKN200
     FM201400 VRB03KT P6SM BKN250
     FM202000 24007KT P6SM BKN250=



000
FTUS41 KRLX 200200 AAA
TAFBKW
TAF AMD
KBKW 200223Z 2002/2024 15004KT P6SM SCT250
     FM201500 25006KT P6SM BKN250
     FM201900 24010G19KT P6SM BKN140
     FM202300 23006KT P6SM BKN090=



000
FTUS41 KRLX 200200 AAA
TAFCKB
TAF AMD
KCKB 200223Z 2002/2024 00000KT P6SM SCT250
     FM201400 18005KT P6SM BKN025
     FM201600 21007KT P6SM BKN250=



000
FTUS41 KRLX 192300
TAFPKB
TAF
KPKB 192332Z 2000/2024 00000KT P6SM SCT250
     FM200700 00000KT 5SM BR SCT025 BKN250
      TEMPO 2008/2010 2SM BR SCT002
     FM201100 00000KT P6SM BKN025
     FM201300 VRB03KT P6SM BKN140
     FM201700 20007KT P6SM BKN090=



000
FTUS41 KRLX 192300
TAFPKB
TAF
KPKB 192332Z 2000/2024 00000KT P6SM SCT250
     FM200700 00000KT 5SM BR SCT025 BKN250
      TEMPO 2008/2010 2SM BR SCT002
     FM201100 00000KT P6SM BKN025
     FM201300 VRB03KT P6SM BKN140
     FM201700 20007KT P6SM BKN090=



000
FTUS41 KRLX 192300
TAFEKN
TAF
KEKN 192320Z 2000/2024 00000KT P6SM SCT250
     FM200400 00000KT 5SM BR SCT250
     FM200500 00000KT 2SM BR SCT001
     FM200600 00000KT 1/4SM FG VV001
     FM201300 00000KT 3SM BR BKN200
     FM201400 VRB03KT P6SM BKN250
     FM202000 24007KT P6SM BKN250=



000
FTUS41 KRLX 192300
TAFPKB
TAF
KPKB 192320Z 2000/2024 00000KT P6SM SCT250
     FM200700 00000KT 5SM BR SCT025 BKN250
     FM200800 00000KT 2SM BR BKN025
      TEMPO 2008/2010 1/2SM FG VV001
     FM201100 00000KT 5SM BR SCT002 BKN025
     FM201200 00000KT P6SM BKN025
     FM201300 VRB03KT P6SM BKN140
     FM201700 20007KT P6SM BKN090=



000
FTUS41 KRLX 192300
TAFEKN
TAF
KEKN 192320Z 2000/2024 00000KT P6SM SCT250
     FM200400 00000KT 5SM BR SCT250
     FM200500 00000KT 2SM BR SCT001
     FM200600 00000KT 1/4SM FG VV001
     FM201300 00000KT 3SM BR BKN200
     FM201400 VRB03KT P6SM BKN250
     FM202000 24007KT P6SM BKN250=



000
FTUS41 KRLX 192300
TAFHTS
TAF
KHTS 192320Z 2000/2024 00000KT P6SM SCT250
     FM201500 22005KT P6SM BKN100
     FM201900 21009G17KT P6SM BKN100=



000
FTUS41 KRLX 192300
TAFBKW
TAF
KBKW 192320Z 2000/2024 00000KT P6SM SCT250
     FM201500 25006KT P6SM BKN250
     FM201900 24010G19KT P6SM BKN140
     FM202300 23006KT P6SM BKN090=



000
FTUS41 KRLX 192300
TAFCKB
TAF
KCKB 192320Z 2000/2024 00000KT P6SM SCT250
     FM201400 18005KT P6SM BKN025
     FM201600 21007KT P6SM BKN250=



000
FTUS41 KRLX 192300
TAFCRW
TAF
KCRW 192320Z 2000/2024 00000KT P6SM SCT250
     FM200900 00000KT 6SM BR FEW001 SCT025 BKN250
     FM201400 22007KT P6SM BKN250=



000
FTUS41 KRLX 192300
TAFBKW
TAF
KBKW 192320Z 2000/2024 00000KT P6SM SCT250
     FM201500 25006KT P6SM BKN250
     FM201900 24010G19KT P6SM BKN140
     FM202300 23006KT P6SM BKN090=



000
FTUS41 KRLX 192300
TAFCRW
TAF
KCRW 192320Z 2000/2024 00000KT P6SM SCT250
     FM200900 00000KT 6SM BR FEW001 SCT025 BKN250
     FM201400 22007KT P6SM BKN250=



000
FTUS41 KRLX 192300
TAFCKB
TAF
KCKB 192320Z 2000/2024 00000KT P6SM SCT250
     FM201400 18005KT P6SM BKN025
     FM201600 21007KT P6SM BKN250=



000
FTUS41 KRLX 192300
TAFHTS
TAF
KHTS 192320Z 2000/2024 00000KT P6SM SCT250
     FM201500 22005KT P6SM BKN100
     FM201900 21009G17KT P6SM BKN100=



000
FTUS41 KRLX 192300
TAFPKB
TAF
KPKB 192320Z 2000/2024 00000KT P6SM SCT250
     FM200700 00000KT 5SM BR SCT025 BKN250
     FM200800 00000KT 2SM BR BKN025
      TEMPO 2008/2010 1/2SM FG VV001
     FM201100 00000KT 5SM BR SCT002 BKN025
     FM201200 00000KT P6SM BKN025
     FM201300 VRB03KT P6SM BKN140
     FM201700 20007KT P6SM BKN090=



000
FTUS41 KRLX 191700 RRA
TAFBKW
TAF
KBKW 191744Z 1918/2018 33005KT P6SM SCT025
     FM192100 30004KT P6SM SKC
     FM201700 24004KT P6SM BKN100=



000
FTUS41 KRLX 191700
TAFCKB
TAF
KCKB 191721Z 1918/2018 27005KT P6SM SCT035
     FM192200 VRB03KT P6SM SKC
     FM201700 22005KT P6SM BKN110=



000
FTUS41 KRLX 191700
TAFPKB
TAF
KPKB 191721Z 1918/2018 26005KT P6SM SCT035
     FM192300 00000KT P6SM SKC
     FM201700 21005KT P6SM BKN110=



000
FTUS41 KRLX 191700
TAFEKN
TAF
KEKN 191721Z 1918/2018 28006KT P6SM BKN030
     FM191900 00000KT P6SM SCT030
     FM200000 00000KT P6SM SKC
     FM201700 24005KT P6SM BKN110=



000
FTUS41 KRLX 191700
TAFCRW
TAF
KCRW 191721Z 1918/2018 VRB03KT P6SM BKN040
     FM191900 VRB03KT P6SM SCT040
     FM192000 00000KT P6SM SKC
     FM201700 22004KT P6SM BKN110=



000
FTUS41 KRLX 191700
TAFBKW
TAF
KBKW 191721Z 1918/2018 30005KT P6SM BKN025
     FM191830 30005KT P6SM SCT025
     FM192100 30004KT P6SM SKC
     FM201700 24004KT P6SM BKN100=



000
FTUS41 KRLX 191700
TAFHTS
TAF
KHTS 191721Z 1918/2018 26004KT P6SM SCT040
     FM192000 VRB03KT P6SM SKC=



000
FTUS41 KRLX 191400 AAA
TAFHTS
TAF AMD
KHTS 191445Z 1915/2012 30006KT P6SM BKN035
     FM191800 VRB03KT P6SM SCT035
     FM192100 VRB03KT P6SM SKC=



000
FTUS41 KRLX 191400 AAA
TAFPKB
TAF AMD
KPKB 191445Z 1915/2012 29004KT P6SM SCT035
     FM191800 26005KT P6SM SKC
     FM192300 00000KT P6SM SCT250=



000
FTUS41 KRLX 191400 AAD
TAFBKW
TAF AMD
KBKW 191445Z 1915/2012 32008KT P6SM SCT015 BKN030
     FM191900 31007KT P6SM SCT030
     FM192300 00000KT P6SM SKC
     FM200800 17003KT P6SM FEW110=



000
FTUS41 KRLX 191400 AAA
TAFCKB
TAF AMD
KCKB 191445Z 1915/2012 31006KT P6SM BKN035
     FM191800 29006KT P6SM SCT035
     FM192000 25004KT P6SM SKC=



000
FTUS41 KRLX 191400 AAB
TAFEKN
TAF AMD
KEKN 191445Z 1915/2012 35007KT P6SM BKN025
     FM191800 28006KT P6SM SCT025
     FM192300 00000KT P6SM SKC
     FM200300 00000KT 4SM HZ SCT007=



000
FTUS41 KRLX 191400 AAB
TAFCRW
TAF AMD
KCRW 191445Z 1915/2012 30005KT P6SM BKN015 BKN040
     FM191500 30004KT P6SM SCT015 BKN040
     FM191800 27003KT P6SM SKC=



000
FTUS41 KRLX 191400 AAA
TAFCRW
TAF AMD
KCRW 191430Z 1915/2012 30005KT P6SM BKN015 OVC040
     FM191500 30004KT P6SM SCT015 BKN040
     FM191800 27003KT P6SM SKC=



000
FTUS41 KRLX 191400 AAC
TAFBKW
TAF AMD
KBKW 191429Z 1914/2012 32008KT P6SM SCT015 OVC030
     FM191700 31007KT P6SM SCT030
     FM191900 30007KT P6SM FEW100
     FM192300 00000KT P6SM SKC
     FM200800 17003KT P6SM FEW110=



000
FTUS41 KRLX 191400 AAB
TAFBKW
TAF AMD
KBKW 191408Z 1914/2012 32008KT P6SM SCT014 OVC030
     FM191500 31007KT P6SM SCT030
     FM191900 30007KT P6SM FEW100
     FM192300 00000KT P6SM SKC
     FM200800 17003KT P6SM FEW110=



000
FTUS41 KRLX 191200 AAA
TAFEKN
TAF AMD
KEKN 191255Z 1913/2012 30007KT P6SM SCT015 BKN025
     FM191500 28006KT P6SM SCT025
     FM192300 00000KT P6SM SKC
     FM200300 00000KT 4SM HZ SCT007=



000
FTUS41 KRLX 191200 AAA
TAFBKW
TAF AMD
KBKW 191231Z 1913/2012 32008KT P6SM SCT009 OVC025
     FM191400 31007KT P6SM SCT025
     FM191900 30007KT P6SM FEW100
     FM192300 00000KT P6SM SKC
     FM200800 17003KT P6SM FEW110=



000
FTUS41 KRLX 191100
TAFCKB
TAF
KCKB 191131Z 1912/2012 31006KT P6SM SCT025 BKN045
     FM191300 29006KT P6SM SCT015
     FM191800 25004KT P6SM SKC=



000
FTUS41 KRLX 191100
TAFEKN
TAF
KEKN 191131Z 1912/2012 30008KT 6SM -RA OVC015
     FM191400 29009KT P6SM SCT015 BKN025
     FM191500 28006KT P6SM SCT025
     FM192300 00000KT P6SM SKC
     FM200300 00000KT 4SM HZ SCT007=



000
FTUS41 KRLX 191100
TAFBKW
TAF
KBKW 191131Z 1912/2012 32008KT P6SM BKN006 OVC013
     FM191400 31007KT 5SM BR SCT008
     FM191900 30007KT P6SM FEW100
     FM192300 00000KT P6SM SKC
     FM200800 17003KT P6SM FEW110=



000
FTUS41 KRLX 191100
TAFCRW
TAF
KCRW 191131Z 1912/2012 30005KT P6SM BKN015 OVC040
     FM191300 30004KT P6SM SCT015 SCT040
     FM191800 27003KT P6SM SKC=



000
FTUS41 KRLX 191100
TAFHTS
TAF
KHTS 191131Z 1912/2012 30006KT 6SM BR OVC035
     FM191300 VRB03KT P6SM SCT035
     FM191700 VRB03KT P6SM SKC=



000
FTUS41 KRLX 191100
TAFPKB
TAF
KPKB 191131Z 1912/2012 31006KT P6SM SCT022 BKN040
     FM191400 30004KT P6SM SCT025
     FM191600 26005KT P6SM SKC
     FM192300 00000KT P6SM SCT250=



000
FTUS41 KRLX 191100 AAB
TAFEKN
TAF AMD
KEKN 191116Z 1911/2006 30009KT 6SM -RA OVC015
     FM191400 29009KT 5SM BR SCT008=



000
FTUS41 KRLX 190800 AAA
TAFPKB
TAF AMD
KPKB 190830Z 1908/2006 31006KT P6SM SCT022 OVC040
     FM191000 31005KT 4SM BR BKN017
     FM191200 30004KT P6SM SCT020=



000
FTUS41 KRLX 190800 AAA
TAFHTS
TAF AMD
KHTS 190830Z 1908/2006 30006KT 6SM BR OVC040
     FM191200 VRB03KT 4SM BR SCT015
     FM192000 VRB03KT P6SM FEW060=



000
FTUS41 KRLX 190800 AAA
TAFCKB
TAF AMD
KCKB 190830Z 1908/2006 31006KT 6SM -RA SCT009 BKN015 OVC035
     FM191200 29006KT 5SM BR SCT015
     FM192200 25005KT P6SM SCT200=



000
FTUS41 KRLX 190800 AAA
TAFCRW
TAF AMD
KCRW 190830Z 1908/2006 31005KT P6SM BKN015 OVC040
     FM191200 30004KT 6SM BR SCT010
     FM192000 27004KT P6SM FEW025
     FM192300 00000KT P6SM SKC=



000
FTUS41 KRLX 190800 AAA
TAFBKW
TAF AMD
KBKW 190830Z 1908/2006 32008KT P6SM BKN006 OVC013
     FM191200 31007KT 5SM BR SCT008
     FM191900 30007KT P6SM FEW100=



000
FTUS41 KRLX 190800 AAA
TAFEKN
TAF AMD
KEKN 190830Z 1908/2006 30008KT 6SM -RA BR BKN012 OVC023
     FM191100 30009KT 4SM BR OVC008
     FM191400 29009KT 5SM BR SCT008=



000
FTUS41 KRLX 190500
TAFCRW
TAF
KCRW 190530Z 1906/2006 32005KT 6SM -RA BKN025 BKN035 OVC060
     FM190700 31007KT 6SM BR OVC013
     FM191200 30004KT 4SM BR SCT010
     FM192000 27004KT P6SM FEW025
     FM192300 00000KT P6SM SKC=



000
FTUS41 KRLX 190500
TAFHTS
TAF
KHTS 190530Z 1906/2006 35006KT 6SM BR BKN015 OVC040
     FM190800 35005KT 6SM BR BKN011
     FM191200 VRB03KT 4SM BR SCT015
     FM192000 VRB03KT P6SM FEW060=



000
FTUS41 KRLX 190500
TAFCKB
TAF
KCKB 190530Z 1906/2006 32007KT 5SM -RA BKN009 BKN015 OVC050
     FM190900 30006KT 4SM BR OVC012
     FM191200 29006KT 5SM BR SCT015
     FM192200 25005KT P6SM SCT200=



000
FTUS41 KRLX 190500
TAFBKW
TAF
KBKW 190530Z 1906/2006 32008G16KT 6SM -RA BR BKN006 OVC013
     FM190900 31007KT 4SM BR BKN008
     FM191200 31007KT 5SM BR SCT008
     FM191900 30007KT P6SM FEW100=



000
FTUS41 KRLX 190500
TAFPKB
TAF
KPKB 190530Z 1906/2006 31006KT P6SM OVC040
     FM190800 30006KT 6SM BR OVC020
     FM191000 31005KT 4SM BR BKN017
     FM191200 30004KT P6SM SCT020=



000
FTUS41 KRLX 190500
TAFEKN
TAF
KEKN 190530Z 1906/2006 30008KT 6SM BR BKN015 OVC023
     FM190900 30009KT 3SM BR OVC008
     FM191600 29009KT 5SM BR SCT008=



000
FTUS41 KRLX 190300 CCA
TAFEKN
TAF COR
KEKN 190359Z 1904/1924 30008KT 4SM RA BR BKN015 OVC023
     FM190500 30009KT 3SM BR OVC008
     FM191600 29009KT 5SM BR SCT008=



000
FTUS41 KRLX 190300 CCA
TAFEKN
TAF COR
KEKN 190359Z 1904/1924 30008KT 4SM RA BR BKN015 OVC023
     FM190500 30009KT 3SM BR OVC008
     FM191600 29009KT 5SM BR SCT008=



000
FTUS41 KRLX 190300 AAB
TAFBKW
TAF AMD
KBKW 190358Z 1904/1924 32008KT 3SM -RA BR OVC007
     FM190700 31007KT 4SM BR BKN008
     FM191200 31007KT 5SM BR SCT008
     FM191900 30007KT P6SM FEW100=



000
FTUS41 KRLX 190300 AAA
TAFPKB
TAF AMD
KPKB 190358Z 1904/1924 31006KT P6SM OVC045
     FM190600 30006KT 5SM BR OVC020
     FM190800 31006KT 5SM BR OVC010
     FM191000 31005KT 4SM BR BKN020
     FM191200 30004KT P6SM SCT020=



000
FTUS41 KRLX 190300 AAA
TAFEKN
TAF AMD
KEKN 190358Z 1904/1924 30008KT 4SM RA BR OVC008
     FM190500 30009KT 3SM BR OVC008
     FM191600 29009KT 5SM BR SCT008=



000
FTUS41 KRLX 190300 AAB
TAFCKB
TAF AMD
KCKB 190358Z 1904/1924 32007KT P6SM BKN025 BKN035 OVC050
     FM190500 30006KT 4SM BR OVC010
     FM190600 30006KT 4SM BR OVC008
     FM190900 30007KT 4SM BR BKN010
     FM191200 29006KT 5SM BR SCT015
     FM192200 25005KT P6SM SCT200=



000
FTUS41 KRLX 190300 AAB
TAFCRW
TAF AMD
KCRW 190358Z 1904/1924 32005KT 6SM -RA BKN021 BKN035 OVC060
     FM190500 31007KT 4SM BR OVC010
     FM191200 30004KT 4SM BR SCT010
     FM192000 27004KT P6SM FEW025=



000
FTUS41 KRLX 190300 AAA
TAFHTS
TAF AMD
KHTS 190358Z 1904/1924 35006KT 6SM BR OVC025
     FM190600 35005KT 6SM BR BKN015
     FM191200 VRB03KT 4SM BR SCT015
     FM192000 VRB03KT P6SM FEW060=



000
FTUS41 KRLX 190300 AAA
TAFEKN
TAF AMD
KEKN 190358Z 1904/1924 30008KT 4SM RA BR OVC008
     FM190500 30009KT 3SM BR OVC008
     FM191600 29009KT 5SM BR SCT008=



000
FTUS41 KRLX 190300 AAA
TAFHTS
TAF AMD
KHTS 190358Z 1904/1924 35006KT 6SM BR OVC025
     FM190600 35005KT 6SM BR BKN015
     FM191200 VRB03KT 4SM BR SCT015
     FM192000 VRB03KT P6SM FEW060=



000
FTUS41 KRLX 190300 AAB
TAFCKB
TAF AMD
KCKB 190358Z 1904/1924 32007KT P6SM BKN025 BKN035 OVC050
     FM190500 30006KT 4SM BR OVC010
     FM190600 30006KT 4SM BR OVC008
     FM190900 30007KT 4SM BR BKN010
     FM191200 29006KT 5SM BR SCT015
     FM192200 25005KT P6SM SCT200=



000
FTUS41 KRLX 190300 AAA
TAFPKB
TAF AMD
KPKB 190358Z 1904/1924 31006KT P6SM OVC045
     FM190600 30006KT 5SM BR OVC020
     FM190800 31006KT 5SM BR OVC010
     FM191000 31005KT 4SM BR BKN020
     FM191200 30004KT P6SM SCT020=



000
FTUS41 KRLX 190300 AAB
TAFCRW
TAF AMD
KCRW 190358Z 1904/1924 32005KT 6SM -RA BKN021 BKN035 OVC060
     FM190500 31007KT 4SM BR OVC010
     FM191200 30004KT 4SM BR SCT010
     FM192000 27004KT P6SM FEW025=



000
FTUS41 KRLX 190300 AAB
TAFBKW
TAF AMD
KBKW 190358Z 1904/1924 32008KT 3SM -RA BR OVC007
     FM190700 31007KT 4SM BR BKN008
     FM191200 31007KT 5SM BR SCT008
     FM191900 30007KT P6SM FEW100=



000
FTUS41 KRLX 190200 AAA
TAFBKW
TAF AMD
KBKW 190200Z 1902/1924 32008KT 3SM -RA BR OVC007
     FM190700 31007KT 4SM BR BKN008
     FM191200 31007KT 5SM BR SCT008
     FM191900 30007KT P6SM FEW100=



000
FTUS41 KRLX 190100 AAA
TAFCKB
TAF AMD
KCKB 190122Z 1901/1924 32007KT P6SM BKN025 BKN035 OVC050
     FM190500 30006KT 4SM BR OVC010
     FM190600 30006KT 4SM BR OVC008
     FM190900 30007KT 4SM BR BKN010
     FM191200 29006KT 5SM BR SCT015
     FM192200 25005KT P6SM SCT200=



000
FTUS41 KRLX 190000 AAA
TAFCRW
TAF AMD
KCRW 190036Z 1901/1924 29007KT P6SM -RA SCT023 BKN028 OVC040
     FM190300 31007KT 4SM BR OVC010
     FM191200 30004KT 4SM BR SCT010
     FM192000 27004KT P6SM FEW025=



000
FTUS41 KRLX 182300
TAFEKN
TAF
KEKN 182337Z 1900/1924 30006KT P6SM FEW030 SCT035 OVC045
     FM190100 29008KT 4SM BR OVC010
     FM190200 30008KT 4SM RA BR OVC008
     FM190500 30009KT 3SM BR OVC008
     FM191600 29009KT 5SM BR SCT008=



000
FTUS41 KRLX 182300
TAFCRW
TAF
KCRW 182337Z 1900/1924 31006G14KT P6SM FEW024 BKN035 OVC045
     FM190100 29005KT 6SM BR OVC025
     FM190300 31007KT 4SM BR OVC010
     FM191200 30004KT 4SM BR SCT010
     FM192000 27004KT P6SM FEW025=



000
FTUS41 KRLX 182300
TAFPKB
TAF
KPKB 182337Z 1900/1924 31006KT P6SM OVC045
     FM190200 30006KT 5SM BR OVC020
     FM190300 31006KT 5SM BR OVC010
     FM191000 31005KT 4SM BR BKN020
     FM191200 30004KT P6SM SCT020=



000
FTUS41 KRLX 182300
TAFCKB
TAF
KCKB 182337Z 1900/1924 29009G16KT P6SM FEW040 OVC060
     FM190500 30006KT 4SM BR OVC010
     FM190600 30006KT 4SM BR OVC008
     FM190900 30007KT 4SM BR BKN010
     FM191200 29006KT 5SM BR SCT015
     FM192200 25005KT P6SM SCT200=



000
FTUS41 KRLX 182300
TAFBKW
TAF
KBKW 182337Z 1900/1924 32008KT P6SM BKN009 BKN015 OVC023
     FM191100 31007KT 4SM BR BKN008
     FM191200 31007KT 5SM BR SCT008
     FM191900 30007KT P6SM FEW100=



000
FTUS41 KRLX 182300
TAFHTS
TAF
KHTS 182337Z 1900/1924 29009G17KT P6SM -RA FEW030 BKN035 OVC045
     FM190100 29006KT 5SM RA BR OVC020
     FM190200 31006KT 5SM BR OVC015
     FM191200 VRB03KT 4SM BR SCT015
     FM192000 VRB03KT P6SM FEW060=



000
FTUS41 KRLX 182100 AAC
TAFBKW
TAF AMD
KBKW 182122Z 1821/1918 29007KT P6SM SCT008 BKN018 OVC035
     FM190400 32009KT P6SM OVC010
     FM191100 31007KT P6SM BKN025
     FM191500 30007KT P6SM SCT025=



000
FTUS41 KRLX 182100 AAA
TAFCKB
TAF AMD
KCKB 182122Z 1821/1918 30010KT P6SM BKN040 OVC050
     FM182200 28007KT P6SM OVC025
     FM190200 29007KT P6SM OVC020
     FM190900 30007KT 6SM BR BKN015
     FM191000 30007KT 5SM BR BKN010
     FM191200 29006KT 4SM BR SCT010
     FM191600 28006KT P6SM SCT040=



000
FTUS41 KRLX 182100 AAB
TAFEKN
TAF AMD
KEKN 182122Z 1821/1918 31013KT P6SM BKN027 OVC035
     FM190000 30007KT 6SM -RA BR BKN015 OVC025
     FM190500 30009KT P6SM OVC010
     FM191500 29009KT P6SM BKN025
     FM191600 29009KT P6SM SCT035=



000
FTUS41 KRLX 182100 AAA
TAFHTS
TAF AMD
KHTS 182122Z 1821/1918 30006KT P6SM OVC040
     FM182200 29006G16KT P6SM OVC025
     FM190100 32005KT P6SM BKN025
     FM191000 31004KT P6SM SCT025
     FM191300 VRB03KT P6SM SCT035=



000
FTUS41 KRLX 182100 AAA
TAFPKB
TAF AMD
KPKB 182122Z 1821/1918 33008KT P6SM OVC035
     FM182200 28007KT P6SM OVC025
     FM191100 30004KT 6SM BR SCT015
     FM191400 29005KT P6SM SCT030=



000
FTUS41 KRLX 182100 AAB
TAFCRW
TAF AMD
KCRW 182122Z 1821/1918 30007KT P6SM SCT024 BKN035 OVC045
     FM191100 30004KT 6SM BR SCT015
     FM191400 28004KT P6SM SCT025=



000
FTUS41 KRLX 182000 AAB
TAFBKW
TAF AMD
KBKW 182013Z 1820/1918 32009KT 3SM -RA BR BKN009 OVC014
     FM182200 30007KT P6SM BKN015
     FM190400 32009KT P6SM OVC010
     FM191100 31007KT P6SM BKN025
     FM191500 30007KT P6SM SCT025=



000
FTUS41 KRLX 182000 AAA
TAFBKW
TAF AMD
KBKW 182000Z 1820/1918 32009KT 3SM -RA BR FEW009 OVC016
     FM182200 30007KT P6SM BKN015
     FM190400 32009KT P6SM OVC010
     FM191100 31007KT P6SM BKN025
     FM191500 30007KT P6SM SCT025=



000
FTUS41 KRLX 182000 AAA
TAFBKW
TAF AMD
KBKW 182000Z 1820/1918 32009KT 3SM -RA BR FEW009 OVC016
     FM182200 30007KT P6SM BKN015
     FM190400 32009KT P6SM OVC010
     FM191100 31007KT P6SM BKN025
     FM191500 30007KT P6SM SCT025=



000
FTUS41 KRLX 181900 AAA
TAFCRW
TAF AMD
KCRW 181935Z 1820/1918 24008KT P6SM BKN017 BKN035 OVC050
     FM191100 30004KT 6SM BR SCT015
     FM191400 28004KT P6SM SCT025=



000
FTUS41 KRLX 181800 AAA
TAFEKN
TAF AMD
KEKN 181845Z 1819/1918 31009G19KT P6SM SCT025 OVC035
     FM190000 30007KT 6SM -RA BR BKN015 OVC025
     FM190500 30009KT P6SM OVC010
     FM191300 30009KT P6SM BKN015
     FM191500 29009KT P6SM BKN025
     FM191600 29009KT P6SM SCT035=



000
FTUS41 KRLX 181700
TAFEKN
TAF
KEKN 181740Z 1818/1918 29009G19KT P6SM BKN015 OVC025
      TEMPO 1818/1819 3SM -SHRA BR BKN010
     FM181900 29009G19KT P6SM BKN025 OVC035
     FM190000 28007KT 5SM -RA BR BKN015 OVC025
     FM190500 30009KT P6SM OVC010
     FM191300 30009KT P6SM BKN015
     FM191500 29009KT P6SM BKN025
     FM191600 29009KT P6SM SCT035=



000
FTUS41 KRLX 181700
TAFEKN
TAF
KEKN 181740Z 1818/1918 29009G19KT P6SM BKN015 OVC025
      TEMPO 1818/1819 3SM -SHRA BR BKN010
     FM181900 29009G19KT P6SM BKN025 OVC035
     FM190000 28007KT 5SM -RA BR BKN015 OVC025
     FM190500 30009KT P6SM OVC010
     FM191300 30009KT P6SM BKN015
     FM191500 29009KT P6SM BKN025
     FM191600 29009KT P6SM SCT035=



000
FTUS41 KRLX 181700
TAFCRW
TAF
KCRW 181737Z 1818/1918 31006G16KT P6SM SCT025 OVC035
     FM182200 29005KT P6SM OVC025
     FM191100 30004KT 6SM BR SCT015
     FM191400 28004KT P6SM SCT025=



000
FTUS41 KRLX 181700
TAFBKW
TAF
KBKW 181737Z 1818/1918 29010G20KT P6SM OVC035
     FM182000 30009G19KT P6SM OVC025
     FM182200 30007KT P6SM BKN015
     FM190400 32009KT P6SM OVC010
     FM191100 31007KT P6SM BKN025
     FM191500 30007KT P6SM SCT025=



000
FTUS41 KRLX 181700
TAFEKN
TAF
KEKN 181737Z 1818/1918 29009G19KT P6SM BKN015 OVC025
     FM181900 29009G19KT P6SM BKN025 OVC035
     FM190000 28007KT 5SM -RA BR BKN015 OVC025
     FM190500 30009KT P6SM OVC010
     FM191300 30009KT P6SM BKN015
     FM191500 29009KT P6SM BKN025
     FM191600 29009KT P6SM SCT035=



000
FTUS41 KRLX 181700
TAFHTS
TAF
KHTS 181737Z 1818/1918 28006G16KT P6SM OVC030
     FM182200 29006G16KT P6SM OVC025
     FM190100 32005KT P6SM BKN025
     FM191000 31004KT P6SM SCT025
     FM191100 VRB03KT 6SM BR SCT015
     FM191300 VRB03KT P6SM SCT035=



000
FTUS41 KRLX 181700
TAFCKB
TAF
KCKB 181737Z 1818/1918 27010G20KT P6SM BKN020
     FM182200 28007KT P6SM OVC025
     FM190200 29007KT P6SM OVC020
     FM190900 30007KT 6SM BR BKN015
     FM191000 30007KT 5SM BR BKN010
     FM191200 29006KT 4SM BR SCT010
     FM191600 28006KT P6SM SCT040=



000
FTUS41 KRLX 181700
TAFPKB
TAF
KPKB 181737Z 1818/1918 30009G19KT P6SM OVC035
     FM182200 28007KT P6SM OVC025
     FM190400 31006KT P6SM OVC020
     FM191100 30004KT 6SM BR SCT015
     FM191400 29005KT P6SM SCT030=



000
FTUS41 KRLX 181500 AAB
TAFBKW
TAF AMD
KBKW 181559Z 1816/1912 28012G22KT P6SM BKN035
     FM181700 31010G22KT P6SM BKN025
      TEMPO 1817/1818 3SM -SHRA BR BKN035
     FM181800 30015G26KT P6SM BKN015
     FM182300 30017G29KT P6SM BKN010=



000
FTUS41 KRLX 181500 AAB
TAFBKW
TAF AMD
KBKW 181559Z 1816/1912 28012G22KT P6SM BKN035
     FM181700 31010G22KT P6SM BKN025
      TEMPO 1817/1818 3SM -SHRA BR BKN035
     FM181800 30015G26KT P6SM BKN015
     FM182300 30017G29KT P6SM BKN010=



    US Dept of Commerce
    National Oceanic and Atmospheric Administration
    National Weather Service
    1325 East West Highway
    Silver Spring, MD 20910
    Page Author: NWS Internet Services Team
Disclaimer
Information Quality
Credits
Glossary
Privacy Policy
Freedom of Information Act (FOIA)
About Us
Career Opportunities